Time;durP1;ratioP1;P1;durP2;ratioP2;P2;SDS_P1;SDS_P2;PMS_P1;PMS_P2;Temp;Humidity;BMP_temperature;BMP_pressure;BME280_temperature;BME280_humidity;BME280_pressure;Samples;Min_cycle;Max_cycle;Signal;HPM_P1;HPM_P2
2022/03/07 00:00:24;;;;;;;22.27;10.82;;;;;;;-1.28;58.03;99165.16;5027137;28;20052;-62
2022/03/07 00:03:10;;;;;;;20.83;10.68;;;;;;;-1.19;57.41;99165.00;5011949;28;20057;-61
2022/03/07 00:05:56;;;;;;;18.42;9.45;;;;;;;-0.87;56.90;99170.59;5017286;28;20069;-61
2022/03/07 00:08:41;;;;;;;20.35;11.07;;;;;;;-1.05;56.81;99169.13;5011809;28;20065;-62
2022/03/07 00:11:28;;;;;;;21.33;10.75;;;;;;;-1.18;56.93;99169.31;5011942;28;20058;-62
2022/03/07 00:14:14;;;;;;;23.42;10.05;;;;;;;-1.43;57.28;99169.63;5012115;28;20081;-61
2022/03/07 00:16:59;;;;;;;21.27;9.75;;;;;;;-1.26;57.25;99155.69;5030382;28;20413;-62
2022/03/07 00:19:45;;;;;;;19.20;10.35;;;;;;;-1.27;56.41;99159.13;5031831;28;20519;-62
2022/03/07 00:22:30;;;;;;;20.67;10.30;;;;;;;-1.18;56.84;99166.72;5030771;28;20504;-61
2022/03/07 00:25:16;;;;;;;19.33;10.35;;;;;;;-1.24;56.35;99161.69;5032199;28;20057;-61
2022/03/07 00:28:02;;;;;;;19.27;9.30;;;;;;;-1.25;56.80;99167.69;5031961;28;20060;-62
2022/03/07 00:30:48;;;;;;;20.98;10.77;;;;;;;-1.36;56.61;99165.25;5030596;28;20057;-61
2022/03/07 00:33:34;;;;;;;21.23;9.35;;;;;;;-1.08;56.71;99169.16;5032176;28;20409;-62
2022/03/07 00:36:22;;;;;;;20.30;10.43;;;;;;;-1.13;55.65;99167.50;5022914;28;20525;-62
2022/03/07 00:39:08;;;;;;;17.88;8.65;;;;;;;-0.90;55.88;99170.63;5022400;28;20076;-61
2022/03/07 00:41:55;;;;;;;21.55;10.68;;;;;;;-0.90;55.15;99173.19;5031408;28;20056;-62
2022/03/07 00:44:43;;;;;;;16.83;9.10;;;;;;;-0.72;54.35;99171.22;5030124;28;20080;-62
2022/03/07 00:47:29;;;;;;;18.27;9.50;;;;;;;-0.76;54.46;99175.56;5016366;28;20064;-66
2022/03/07 00:50:16;;;;;;;17.75;9.35;;;;;;;-1.08;55.51;99166.59;5031326;28;20052;-61
2022/03/07 00:53:02;;;;;;;17.30;9.32;;;;;;;-1.27;56.04;99170.28;5016266;28;20508;-63
2022/03/07 00:55:48;;;;;;;19.85;9.52;;;;;;;-1.18;55.69;99166.72;5031178;28;20068;-61
2022/03/07 00:58:34;;;;;;;22.02;11.00;;;;;;;-1.49;56.17;99167.13;5030986;28;20080;-60
2022/03/07 01:01:20;;;;;;;18.92;9.65;;;;;;;-1.15;55.50;99158.97;5030975;28;20050;-61
2022/03/07 01:04:07;;;;;;;16.33;9.25;;;;;;;-1.35;56.41;99161.81;5034419;28;20049;-63
2022/03/07 01:06:55;;;;;;;19.15;9.70;;;;;;;-1.50;56.52;99160.28;5035442;28;20519;-61
2022/03/07 01:09:40;;;;;;;18.48;9.60;;;;;;;-1.38;55.87;99154.13;5020726;28;20079;-62
2022/03/07 01:12:26;;;;;;;19.98;9.57;;;;;;;-1.43;55.97;99151.63;5012348;28;20065;-61
2022/03/07 01:15:14;;;;;;;18.90;9.30;;;;;;;-1.34;56.66;99155.81;5006477;28;20084;-64
2022/03/07 01:18:00;;;;;;;20.90;11.00;;;;;;;-1.05;54.86;99154.56;5020323;28;20103;-62
2022/03/07 01:20:46;;;;;;;19.83;9.95;;;;;;;-1.22;55.72;99153.94;5034195;28;20057;-63
2022/03/07 01:23:32;;;;;;;17.15;9.15;;;;;;;-1.05;55.14;99149.41;5035369;28;20060;-61
2022/03/07 01:26:18;;;;;;;15.52;8.45;;;;;;;-1.04;55.52;99150.22;5034975;28;20052;-63
2022/03/07 01:29:04;;;;;;;14.68;7.78;;;;;;;-1.04;55.79;99145.09;5034042;28;20527;-61
2022/03/07 01:31:51;;;;;;;20.02;9.73;;;;;;;-1.07;54.93;99148.56;5033968;28;20065;-61
2022/03/07 01:34:36;;;;;;;16.63;8.88;;;;;;;-1.07;55.03;99148.56;5033594;28;20412;-61
2022/03/07 01:37:22;;;;;;;14.85;8.05;;;;;;;-1.10;54.85;99143.47;5033695;28;20053;-62
2022/03/07 01:40:09;;;;;;;18.58;9.27;;;;;;;-1.12;54.82;99143.50;5040692;28;20061;-62
2022/03/07 01:42:55;;;;;;;19.45;9.38;;;;;;;-1.05;54.85;99131.41;5034570;28;20060;-63
2022/03/07 01:45:44;;;;;;;18.85;8.63;;;;;;;-1.06;55.25;99136.56;5034527;28;20097;-62
2022/03/07 01:48:29;;;;;;;13.38;8.10;;;;;;;-1.08;55.28;99134.03;5033520;28;20535;-61
2022/03/07 01:51:16;;;;;;;18.95;9.48;;;;;;;-1.19;55.30;99129.00;5032477;28;20069;-64
2022/03/07 01:54:04;;;;;;;18.70;9.00;;;;;;;-1.13;55.25;99135.81;5013845;28;20057;-65
2022/03/07 01:56:52;;;;;;;18.50;9.02;;;;;;;-1.01;54.41;99138.19;5013630;28;20084;-61
2022/03/07 01:59:38;;;;;;;19.08;9.40;;;;;;;-1.12;54.55;99135.78;5005470;28;20057;-61
2022/03/07 02:02:24;;;;;;;14.68;8.52;;;;;;;-1.07;55.37;99133.13;5005029;28;20069;-61
2022/03/07 02:05:12;;;;;;;16.52;8.52;;;;;;;-1.45;56.08;99135.38;5013303;28;20057;-60
2022/03/07 02:07:59;;;;;;;18.88;9.10;;;;;;;-1.38;55.70;99131.84;5014457;28;20065;-61
2022/03/07 02:10:47;;;;;;;17.63;9.25;;;;;;;-1.31;55.60;99130.06;5013630;28;20068;-61
2022/03/07 02:13:35;;;;;;;17.83;9.30;;;;;;;-1.46;56.00;99125.97;5004796;28;20072;-61
2022/03/07 02:16:24;;;;;;;19.52;9.10;;;;;;;-1.29;55.39;99128.28;5013255;28;20065;-62
2022/03/07 02:19:10;;;;;;;19.05;9.95;;;;;;;-1.53;55.96;99127.75;5014810;28;20060;-62
2022/03/07 02:22:00;;;;;;;16.45;8.48;;;;;;;-1.45;56.47;99137.94;5005980;28;20461;-62
2022/03/07 02:24:50;;;;;;;17.95;9.20;;;;;;;-1.21;55.42;99137.63;5016059;28;20053;-61
2022/03/07 02:27:36;;;;;;;17.70;8.60;;;;;;;-1.20;55.21;99134.19;5018948;28;20072;-62
2022/03/07 02:30:24;;;;;;;17.95;8.63;;;;;;;-1.46;55.78;99136.25;5015590;28;20064;-61
2022/03/07 02:33:13;;;;;;;17.05;8.63;;;;;;;-1.36;55.72;99139.56;5005130;28;20057;-62
2022/03/07 02:36:03;;;;;;;18.52;9.43;;;;;;;-1.39;55.45;99137.03;5013198;28;20060;-60
2022/03/07 02:38:49;;;;;;;19.90;9.80;;;;;;;-1.33;55.33;99136.06;5012929;28;20428;-61
2022/03/07 02:41:36;;;;;;;20.70;9.60;;;;;;;-1.21;55.40;99140.22;5013126;28;20075;-61
2022/03/07 02:44:26;;;;;;;16.60;8.60;;;;;;;-1.24;54.56;99138.53;5013476;28;20603;-62
2022/03/07 02:47:16;;;;;;;17.45;8.75;;;;;;;-1.32;55.13;99137.78;5012569;28;20049;-62
2022/03/07 02:50:03;;;;;;;15.45;8.25;;;;;;;-1.14;54.24;99146.94;4999135;28;20053;-61
2022/03/07 02:52:48;;;;;;;18.20;9.13;;;;;;;-1.16;54.17;99151.28;4998859;28;20064;-61
2022/03/07 02:55:34;;;;;;;16.10;8.13;;;;;;;-1.07;53.86;99158.84;4998704;28;20080;-62
2022/03/07 02:58:20;;;;;;;16.90;9.48;;;;;;;-1.19;53.92;99152.16;5012576;28;20053;-64
2022/03/07 03:01:06;;;;;;;15.88;8.88;;;;;;;-1.10;53.38;99147.75;5013341;28;20513;-63
2022/03/07 03:03:52;;;;;;;19.45;9.43;;;;;;;-1.27;53.54;99149.69;5026393;28;20082;-61
2022/03/07 03:06:38;;;;;;;17.48;8.82;;;;;;;-1.34;54.14;99150.66;4998734;28;20057;-61
2022/03/07 03:09:23;;;;;;;15.38;9.05;;;;;;;-1.28;53.24;99153.16;5012314;28;20065;-61
2022/03/07 03:12:10;;;;;;;18.35;9.38;;;;;;;-1.49;53.72;99155.16;5013408;28;20057;-61
2022/03/07 03:14:56;;;;;;;14.27;7.80;;;;;;;-1.09;53.32;99152.03;5026078;28;20068;-61
2022/03/07 03:17:43;;;;;;;14.70;7.82;;;;;;;-1.45;53.60;99150.78;5013381;28;20133;-64
2022/03/07 03:20:29;;;;;;;16.50;8.35;;;;;;;-1.22;52.38;99148.81;5013197;28;20056;-61
2022/03/07 03:23:16;;;;;;;16.05;7.20;;;;;;;-1.21;53.26;99155.63;5012190;28;20125;-61
2022/03/07 03:26:01;;;;;;;16.42;8.05;;;;;;;-0.98;52.80;99151.88;5018723;28;20084;-61
2022/03/07 03:28:47;;;;;;;17.15;7.60;;;;;;;-1.04;51.91;99147.66;5022054;28;20053;-62
2022/03/07 03:31:33;;;;;;;18.08;8.30;;;;;;;-1.34;51.88;99148.09;5007514;28;20397;-62
2022/03/07 03:34:18;;;;;;;19.63;8.82;;;;;;;-1.26;52.45;99142.84;5013472;28;20520;-61
2022/03/07 03:37:04;;;;;;;14.95;8.32;;;;;;;-1.38;52.39;99146.44;5013251;28;20077;-61
2022/03/07 03:39:51;;;;;;;19.38;8.63;;;;;;;-0.85;51.70;99155.97;5003517;28;20406;-62
2022/03/07 03:42:37;;;;;;;14.73;7.22;;;;;;;-0.69;50.97;99151.44;5012893;28;20057;-61
2022/03/07 03:45:23;;;;;;;16.08;8.32;;;;;;;-1.16;50.93;99153.84;5012570;28;20057;-62
2022/03/07 03:48:08;;;;;;;15.40;8.75;;;;;;;-1.39;51.33;99145.56;5003386;28;20060;-61
2022/03/07 03:50:54;;;;;;;17.02;9.10;;;;;;;-1.68;51.42;99141.66;5012524;28;20120;-61
2022/03/07 03:53:40;;;;;;;16.63;8.68;;;;;;;-1.35;51.08;99151.53;5012645;28;20053;-62
2022/03/07 03:56:26;;;;;;;17.98;8.98;;;;;;;-1.40;51.72;99150.72;4999688;28;20077;-60
2022/03/07 03:59:11;;;;;;;18.92;8.48;;;;;;;-1.40;51.41;99149.00;4997803;28;20077;-61
2022/03/07 04:01:57;;;;;;;18.00;8.82;;;;;;;-1.58;50.98;99144.13;5010393;28;20060;-61
2022/03/07 04:04:43;;;;;;;17.25;7.63;;;;;;;-0.96;50.77;99152.72;5014700;28;20092;-62
2022/03/07 04:07:29;;;;;;;13.77;8.75;;;;;;;-1.03;49.55;99147.63;5029798;28;20053;-63
2022/03/07 04:10:18;;;;;;;21.20;9.30;;;;;;;-1.07;50.05;99148.56;5029804;28;20056;-63
2022/03/07 04:13:04;;;;;;;16.23;7.97;;;;;;;-1.04;50.16;99150.22;5030200;28;20512;-61
2022/03/07 04:15:50;;;;;;;19.20;9.93;;;;;;;-1.42;49.89;99150.75;5029932;28;20064;-62
2022/03/07 04:18:37;;;;;;;15.73;9.02;;;;;;;-1.49;50.24;99142.28;5029011;28;20060;-61
2022/03/07 04:21:22;;;;;;;14.07;8.15;;;;;;;-1.44;51.40;99147.38;5015850;28;20044;-61
2022/03/07 04:24:10;;;;;;;16.52;8.32;;;;;;;-1.70;51.42;99151.13;5031655;28;20119;-61
2022/03/07 04:26:59;;;;;;;16.52;8.50;;;;;;;-1.79;51.97;99169.19;5017390;28;20049;-62
2022/03/07 04:29:45;;;;;;;17.73;9.45;;;;;;;-1.61;50.65;99166.41;5031627;28;20523;-61
2022/03/07 04:32:36;;;;;;;14.77;7.50;;;;;;;-1.58;57.75;99170.66;5030403;28;20512;-61
2022/03/07 04:35:22;;;;;;;16.80;7.07;;;;;;;-1.05;60.12;99167.41;5021163;28;20069;-62
2022/03/07 04:38:08;;;;;;;18.08;8.88;;;;;;;-1.42;51.72;99173.06;5027505;28;20072;-60
2022/03/07 04:40:53;;;;;;;18.30;8.82;;;;;;;-1.43;52.17;99167.06;5031400;28;20060;-60
2022/03/07 04:43:39;;;;;;;19.50;10.27;;;;;;;-1.86;51.13;99173.56;5031426;28;20156;-60
2022/03/07 04:46:24;;;;;;;16.83;8.38;;;;;;;-1.64;56.92;99173.31;5031419;28;20064;-63
2022/03/07 04:49:11;;;;;;;15.88;8.98;;;;;;;-1.40;53.92;99168.72;5031240;28;20052;-64
2022/03/07 04:51:57;;;;;;;17.95;8.77;;;;;;;-0.92;53.59;99180.09;5031180;28;20064;-64
2022/03/07 04:54:43;;;;;;;19.15;10.43;;;;;;;-1.34;49.79;99166.09;5031225;28;20056;-60
2022/03/07 04:57:28;;;;;;;21.00;9.68;;;;;;;-1.74;51.28;99173.41;5031326;28;20053;-62
2022/03/07 05:00:14;;;;;;;19.50;9.93;;;;;;;-1.41;51.49;99167.88;5021927;28;20060;-61
2022/03/07 05:03:00;;;;;;;17.60;9.52;;;;;;;-1.64;50.35;99170.75;5030927;28;20056;-62
2022/03/07 05:05:46;;;;;;;16.25;8.25;;;;;;;-1.53;51.74;99165.47;5031086;28;20117;-61
2022/03/07 05:08:31;;;;;;;17.35;8.10;;;;;;;-1.64;52.18;99174.16;5031055;28;20746;-64
2022/03/07 05:11:17;;;;;;;16.25;9.13;;;;;;;-1.73;51.77;99171.72;5002578;28;20064;-61
2022/03/07 05:14:03;;;;;;;18.65;9.40;;;;;;;-1.53;50.76;99168.03;5036763;28;20064;-61
2022/03/07 05:16:48;;;;;;;19.17;10.27;;;;;;;-1.86;50.79;99186.41;5031349;28;20068;-61
2022/03/07 05:19:34;;;;;;;20.40;10.60;;;;;;;-1.91;50.98;99177.91;5016145;28;20080;-61
2022/03/07 05:22:24;;;;;;;19.13;9.10;;;;;;;-1.92;52.68;99187.31;5029102;28;20049;-61
2022/03/07 05:25:13;;;;;;;17.70;9.73;;;;;;;-2.20;51.84;99191.88;5021855;28;20057;-59
2022/03/07 05:27:58;;;;;;;18.75;9.93;;;;;;;-2.12;52.49;99183.22;5028213;28;20400;-61
2022/03/07 05:30:46;;;;;;;22.73;9.80;;;;;;;-1.86;56.70;99189.81;5028832;28;20057;-59
2022/03/07 05:33:31;;;;;;;18.00;9.57;;;;;;;-0.43;73.04;99191.34;5027253;28;20072;-59
2022/03/07 05:36:17;;;;;;;16.40;9.18;;;;;;;0.84;62.10;99189.81;5027515;28;20048;-61
2022/03/07 05:39:04;;;;;;;21.05;9.80;;;;;;;0.80;52.36;99184.75;5011365;28;20057;-60
2022/03/07 05:41:50;;;;;;;22.65;11.02;;;;;;;1.29;52.77;99182.78;5010360;28;20065;-61
2022/03/07 05:44:35;;;;;;;21.17;10.45;;;;;;;-1.54;54.66;99197.19;5002986;28;20057;-63
2022/03/07 05:47:21;;;;;;;23.40;11.82;;;;;;;-2.13;55.97;99196.94;5019215;28;20053;-60
2022/03/07 05:50:08;;;;;;;22.98;11.10;;;;;;;-1.89;57.09;99189.84;5017775;28;20504;-61
2022/03/07 05:52:54;;;;;;;22.88;11.25;;;;;;;-1.98;56.20;99208.78;5034295;28;20069;-62
2022/03/07 05:55:41;;;;;;;24.13;10.63;;;;;;;-2.31;57.05;99197.09;5039493;28;20065;-61
2022/03/07 05:58:27;;;;;;;18.70;10.15;;;;;;;-1.59;55.60;99193.81;5014878;28;20053;-61
2022/03/07 06:01:14;;;;;;;22.98;11.80;;;;;;;-1.81;55.53;99194.91;5014811;28;20058;-60
2022/03/07 06:03:59;;;;;;;21.48;10.95;;;;;;;-1.64;55.50;99193.88;5027207;28;20057;-60
2022/03/07 06:06:45;;;;;;;21.38;10.82;;;;;;;-1.44;55.80;99196.22;5034082;28;20052;-61
2022/03/07 06:09:31;;;;;;;20.38;10.13;;;;;;;-0.63;53.71;99200.25;5034011;28;20053;-61
2022/03/07 06:12:16;;;;;;;25.50;11.52;;;;;;;-0.95;53.39;99195.56;5040032;28;20064;-60
2022/03/07 06:15:04;;;;;;;24.77;11.07;;;;;;;-1.55;55.36;99191.19;5033062;28;20489;-61
2022/03/07 06:17:54;;;;;;;21.70;12.50;;;;;;;-1.97;57.29;99194.22;5033356;28;20511;-61
2022/03/07 06:20:40;;;;;;;19.10;10.25;;;;;;;-1.71;57.15;99198.22;5032774;28;20061;-60
2022/03/07 06:23:25;;;;;;;22.95;11.43;;;;;;;-1.71;56.80;99207.66;5033118;28;20057;-60
2022/03/07 06:26:12;;;;;;;24.52;11.57;;;;;;;-2.18;59.79;99203.84;5036122;28;20065;-60
2022/03/07 06:28:58;;;;;;;18.80;11.30;;;;;;;-1.90;59.36;99202.72;5041567;28;20065;-60
2022/03/07 06:31:43;;;;;;;24.60;11.82;;;;;;;-1.65;58.78;99205.03;5025607;28;20405;-60
2022/03/07 06:34:31;;;;;;;25.38;12.00;;;;;;;-1.66;58.82;99201.59;5029810;28;20049;-60
2022/03/07 06:37:17;;;;;;;23.95;12.07;;;;;;;-2.27;62.05;99202.19;5021148;28;20410;-61
2022/03/07 06:40:04;;;;;;;24.38;11.77;;;;;;;-2.09;62.21;99218.31;5029821;28;20049;-61
2022/03/07 06:42:50;;;;;;;22.90;11.73;;;;;;;-1.94;61.65;99216.47;5023019;28;20401;-65
2022/03/07 06:45:36;;;;;;;23.45;12.05;;;;;;;-1.83;61.17;99206.06;5029578;28;20160;-61
2022/03/07 06:48:21;;;;;;;25.33;13.15;;;;;;;-2.32;63.51;99215.94;5032544;28;20050;-60
2022/03/07 06:51:07;;;;;;;22.55;12.00;;;;;;;-2.32;63.89;99218.50;5023620;28;20046;-61
2022/03/07 06:53:54;;;;;;;23.70;12.45;;;;;;;-1.68;62.35;99221.31;5034939;28;20053;-61
2022/03/07 06:56:40;;;;;;;24.70;13.48;;;;;;;-1.61;61.67;99220.38;5018054;28;20061;-61
2022/03/07 06:59:26;;;;;;;25.35;11.77;;;;;;;-1.79;73.95;99223.16;5010468;28;20404;-61
2022/03/07 07:02:12;;;;;;;29.38;12.52;;;;;;;-1.32;70.11;99226.03;5027235;28;20508;-62
2022/03/07 07:04:58;;;;;;;25.17;13.05;;;;;;;-1.44;66.13;99236.47;5024210;28;20057;-61
2022/03/07 07:07:45;;;;;;;23.98;11.98;;;;;;;-1.75;64.92;99246.22;5023401;28;20117;-61
2022/03/07 07:10:30;;;;;;;26.10;14.38;;;;;;;-2.01;64.85;99238.78;5033033;28;20053;-61
2022/03/07 07:13:16;;;;;;;25.80;13.13;;;;;;;-2.04;65.90;99249.09;5033133;28;20100;-62
2022/03/07 07:16:01;;;;;;;21.67;12.20;;;;;;;-1.66;71.98;99245.28;5032780;28;20049;-62
2022/03/07 07:18:47;;;;;;;24.00;14.88;;;;;;;-2.14;67.08;99258.59;5031680;28;20057;-61
2022/03/07 07:21:33;;;;;;;20.58;11.48;;;;;;;-1.80;67.75;99253.16;5031460;28;20076;-61
2022/03/07 07:24:19;;;;;;;23.80;11.30;;;;;;;-0.44;62.80;99264.28;5021919;28;20046;-61
2022/03/07 07:27:05;;;;;;;21.85;11.65;;;;;;;-1.14;69.92;99260.09;5030504;28;20048;-50
2022/03/07 07:29:50;;;;;;;19.05;10.40;;;;;;;0.22;61.99;99261.50;5029851;28;20496;-54
2022/03/07 07:32:40;;;;;;;21.95;11.15;;;;;;;-0.80;59.86;99263.97;5029110;28;20064;-56
2022/03/07 07:35:26;;;;;;;23.63;11.90;;;;;;;-1.00;58.74;99273.63;5036094;28;20041;-55
2022/03/07 07:38:13;;;;;;;23.42;11.20;;;;;;;-1.33;58.60;99269.78;5015359;28;20049;-55
2022/03/07 07:40:58;;;;;;;22.00;10.57;;;;;;;-0.77;56.40;99280.19;5030414;28;20543;-53
2022/03/07 07:43:44;;;;;;;19.42;9.65;;;;;;;-0.46;55.34;99281.50;5024120;28;20056;-55
2022/03/07 07:46:30;;;;;;;22.00;10.73;;;;;;;0.22;53.71;99278.69;5010968;28;20056;-54
2022/03/07 07:49:16;;;;;;;97.15;24.58;;;;;;;3.79;100.00;99273.34;5017698;28;20061;-57
2022/03/07 07:52:02;;;;;;;56.25;17.60;;;;;;;5.22;70.95;99277.06;5012136;28;20057;-57
2022/03/07 07:54:48;;;;;;;43.45;16.00;;;;;;;3.94;69.73;99279.78;5002840;28;20417;-56
2022/03/07 07:57:34;;;;;;;22.02;10.60;;;;;;;1.64;51.88;99277.53;5020007;28;20056;-58
2022/03/07 08:00:20;;;;;;;20.23;10.25;;;;;;;2.22;57.39;99277.84;5021535;28;20076;-58
2022/03/07 08:03:06;;;;;;;21.27;9.80;;;;;;;3.01;53.36;99279.16;5027906;28;20080;-59
2022/03/07 08:05:53;;;;;;;17.77;9.27;;;;;;;2.44;54.55;99279.00;5031632;28;20045;-57
2022/03/07 08:08:39;;;;;;;15.57;8.60;;;;;;;3.45;58.61;99278.72;5031170;28;20413;-57
2022/03/07 08:11:24;;;;;;;15.55;8.35;;;;;;;5.13;70.08;99283.47;5030415;28;20057;-54
2022/03/07 08:14:10;;;;;;;15.43;8.35;;;;;;;6.47;61.85;99282.50;5031232;28;20053;-53
2022/03/07 08:16:56;;;;;;;18.23;8.82;;;;;;;5.60;40.35;99284.28;5030256;28;20081;-58
2022/03/07 08:19:42;;;;;;;12.98;7.28;;;;;;;3.24;56.70;99288.00;5031360;28;20080;-59
2022/03/07 08:22:28;;;;;;;12.70;7.53;;;;;;;2.91;47.01;99291.53;5030532;28;20084;-57
2022/03/07 08:25:14;;;;;;;14.05;7.80;;;;;;;1.35;48.82;99285.91;5038055;28;20056;-54
2022/03/07 08:28:00;;;;;;;16.10;8.55;;;;;;;0.24;47.53;99298.41;5023738;28;20403;-56
2022/03/07 08:30:46;;;;;;;14.77;7.78;;;;;;;0.25;45.59;99291.53;5031375;28;20060;-56
2022/03/07 08:33:32;;;;;;;15.10;8.63;;;;;;;-0.08;45.62;99288.66;5021688;28;20056;-56
2022/03/07 08:36:17;;;;;;;15.98;8.90;;;;;;;-1.28;47.98;99306.56;5030331;28;20052;-57
2022/03/07 08:39:03;;;;;;;15.40;8.60;;;;;;;0.11;60.16;99300.34;5030687;28;20404;-55
2022/03/07 08:41:49;;;;;;;13.75;8.15;;;;;;;-0.99;47.76;99302.81;5028594;28;20060;-57
2022/03/07 08:44:34;;;;;;;16.45;9.70;;;;;;;-0.96;45.70;99297.63;5030540;28;20072;-55
2022/03/07 08:47:20;;;;;;;17.00;9.38;;;;;;;-0.98;44.58;99301.09;5029279;28;20069;-54
2022/03/07 08:50:09;;;;;;;18.80;8.70;;;;;;;-0.94;44.11;99302.75;5022195;28;20060;-53
2022/03/07 08:52:55;;;;;;;15.95;9.25;;;;;;;-0.58;43.84;99292.84;5031023;28;20378;-54
2022/03/07 08:55:40;;;;;;;16.17;8.57;;;;;;;0.32;42.23;99289.69;5030980;28;20076;-55
2022/03/07 08:58:26;;;;;;;18.70;8.60;;;;;;;0.28;41.50;99299.19;5030674;28;20068;-55
2022/03/07 09:01:11;;;;;;;19.58;9.10;;;;;;;0.45;42.13;99298.91;5029960;28;20068;-52
2022/03/07 09:03:57;;;;;;;15.95;9.57;;;;;;;-0.16;41.58;99287.03;5030872;28;20056;-56
2022/03/07 09:06:43;;;;;;;12.57;7.63;;;;;;;0.32;41.45;99297.44;5035941;28;20541;-53
2022/03/07 09:09:29;;;;;;;13.75;8.48;;;;;;;-0.51;41.94;99281.56;5031210;28;20080;-55
2022/03/07 09:12:15;;;;;;;13.82;6.57;;;;;;;0.24;41.49;99300.97;5030640;28;20057;-55
2022/03/07 09:15:03;;;;;;;11.50;6.50;;;;;;;1.66;39.89;99283.53;5030577;28;20056;-55
2022/03/07 09:17:49;;;;;;;18.75;7.50;;;;;;;1.29;38.90;99286.06;5030982;28;20056;-56
2022/03/07 09:20:35;;;;;;;11.68;6.20;;;;;;;1.38;42.84;99294.47;5030609;28;20381;-55
2022/03/07 09:23:21;;;;;;;12.30;6.57;;;;;;;1.05;40.67;99298.63;5031248;28;20068;-53
2022/03/07 09:26:09;;;;;;;12.10;6.93;;;;;;;2.40;40.87;99308.44;5034306;28;20053;-57
2022/03/07 09:28:54;;;;;;;12.90;6.60;;;;;;;1.57;40.54;99307.81;5019460;28;20358;-57
2022/03/07 09:31:41;;;;;;;13.02;7.80;;;;;;;-0.09;44.95;99302.41;5034399;28;20078;-59
2022/03/07 09:34:26;;;;;;;11.88;7.07;;;;;;;-0.41;46.79;99310.59;5040346;28;20401;-58
2022/03/07 09:37:12;;;;;;;12.73;8.23;;;;;;;-0.65;46.25;99312.66;5033626;28;20068;-57
2022/03/07 09:39:58;;;;;;;15.15;7.40;;;;;;;-0.71;46.15;99307.59;5025703;28;20052;-56
2022/03/07 09:42:44;;;;;;;13.30;7.07;;;;;;;-0.44;45.42;99314.97;5024575;28;20389;-58
2022/03/07 09:45:30;;;;;;;16.55;8.20;;;;;;;-0.83;45.65;99305.19;5006570;28;20532;-56
2022/03/07 09:48:16;;;;;;;14.23;8.20;;;;;;;-0.79;46.48;99310.28;5026572;28;20048;-54
2022/03/07 09:51:02;;;;;;;14.55;8.00;;;;;;;-0.82;47.26;99312.91;5017642;28;20077;-57
2022/03/07 09:53:47;;;;;;;15.13;8.23;;;;;;;-1.02;48.33;99306.28;5026498;28;20354;-57
2022/03/07 09:56:34;;;;;;;13.23;7.85;;;;;;;-0.78;47.35;99311.09;5032976;28;20084;-56
2022/03/07 09:59:20;;;;;;;14.32;8.13;;;;;;;-1.30;48.31;99300.59;5019937;28;20527;-57
2022/03/07 10:02:14;;;;;;;16.65;8.15;;;;;;;-1.14;47.35;99290.97;5022676;28;20057;-56
2022/03/07 10:05:01;;;;;;;15.80;8.38;;;;;;;-0.97;47.57;99288.22;5032810;28;20444;-47
2022/03/07 10:07:47;;;;;;;14.20;7.47;;;;;;;-0.50;48.33;99288.44;5024905;28;20520;-58
2022/03/07 10:10:36;;;;;;;18.17;7.63;;;;;;;0.35;63.77;99279.31;5028389;28;20408;-57
2022/03/07 10:13:23;;;;;;;10.77;7.22;;;;;;;0.65;44.93;99281.34;5018017;28;20048;-57
2022/03/07 10:16:08;;;;;;;13.20;7.03;;;;;;;-0.10;45.29;99280.09;5012710;28;20544;-57
2022/03/07 10:18:54;;;;;;;13.52;7.20;;;;;;;-0.50;45.54;99285.84;5017246;28;20065;-56
2022/03/07 10:21:50;;;;;;;12.85;6.78;;;;;;;-0.05;44.96;99284.28;5026675;28;20512;-57
2022/03/07 10:24:37;;;;;;;15.35;7.32;;;;;;;-0.19;44.84;99281.94;5028768;28;20045;-58
2022/03/07 10:27:25;;;;;;;13.82;7.38;;;;;;;-0.20;44.35;99280.25;5032864;28;20064;-57
2022/03/07 10:30:14;;;;;;;11.18;6.65;;;;;;;-0.64;44.60;99274.91;5021865;28;20516;-56
2022/03/07 10:33:08;;;;;;;13.02;6.82;;;;;;;-0.31;52.58;99258.97;5029706;28;20056;-55
2022/03/07 10:35:54;;;;;;;11.10;6.97;;;;;;;-0.61;43.69;99264.56;5018660;28;20052;-55
2022/03/07 10:38:42;;;;;;;11.73;5.60;;;;;;;0.61;44.84;99268.53;5019307;28;20358;-58
2022/03/07 10:41:39;;;;;;;14.35;7.03;;;;;;;0.20;42.81;99270.13;5024283;28;20052;-59
2022/03/07 10:44:29;;;;;;;11.00;6.10;;;;;;;0.44;42.45;99268.00;5013530;28;20057;-53
2022/03/07 10:47:17;;;;;;;12.73;6.43;;;;;;;0.30;42.79;99276.84;5013176;28;20053;-51
2022/03/07 10:50:03;;;;;;;11.60;5.60;;;;;;;1.06;54.27;99261.59;5022603;28;20044;-57
2022/03/07 10:52:52;;;;;;;12.68;7.30;;;;;;;0.60;43.72;99264.22;5011419;28;20068;-57
2022/03/07 10:55:37;;;;;;;9.30;5.63;;;;;;;-0.55;45.43;99261.03;5027303;28;20056;-57
2022/03/07 10:58:25;;;;;;;14.38;6.82;;;;;;;-0.90;46.42;99243.50;5031785;28;20476;-57
2022/03/07 11:01:10;;;;;;;14.82;6.60;;;;;;;-0.95;47.11;99252.16;5030571;28;20064;-57
2022/03/07 11:03:57;;;;;;;11.75;6.80;;;;;;;-0.73;46.18;99254.44;5032847;28;20393;-59
2022/03/07 11:06:43;;;;;;;10.85;6.45;;;;;;;-0.40;45.81;99244.50;5030668;28;20053;-60
2022/03/07 11:09:29;;;;;;;12.82;6.38;;;;;;;-0.29;44.99;99239.19;5032057;28;20124;-59
2022/03/07 11:12:14;;;;;;;14.70;6.78;;;;;;;-0.18;45.04;99245.00;5032620;28;20065;-55
2022/03/07 11:15:08;;;;;;;13.13;6.78;;;;;;;0.82;45.80;99238.00;5033231;28;20072;-58
2022/03/07 11:17:53;;;;;;;12.38;6.43;;;;;;;1.16;44.12;99235.59;5032415;28;20068;-58
2022/03/07 11:20:42;;;;;;;11.40;5.70;;;;;;;0.95;42.90;99236.03;5032821;28;20064;-59
2022/03/07 11:23:29;;;;;;;10.52;5.93;;;;;;;0.39;44.16;99224.25;5032492;28;20564;-58
2022/03/07 11:26:17;;;;;;;12.00;6.30;;;;;;;0.71;58.42;99215.03;5038658;28;20060;-48
2022/03/07 11:29:06;;;;;;;12.50;5.90;;;;;;;0.65;43.77;99203.97;5031849;28;20056;-59
2022/03/07 11:32:00;;;;;;;11.23;5.22;;;;;;;2.02;41.39;99208.56;5015971;28;20045;-59
2022/03/07 11:35:02;;;;;;;10.43;5.78;;;;;;;2.37;39.35;99211.06;5019512;28;20048;-57
2022/03/07 11:37:47;;;;;;;10.52;5.75;;;;;;;2.42;39.72;99204.03;5030185;28;20374;-58
2022/03/07 11:40:33;;;;;;;10.60;5.22;;;;;;;3.21;38.39;99197.47;5031829;28;20049;-57
2022/03/07 11:43:19;;;;;;;10.35;5.60;;;;;;;2.76;38.90;99191.88;5030857;28;20060;-57
2022/03/07 11:46:05;;;;;;;9.32;5.07;;;;;;;2.07;40.41;99188.59;5029393;28;20057;-58
2022/03/07 11:48:51;;;;;;;10.02;5.47;;;;;;;2.16;44.94;99191.81;5021232;28;20073;-58
2022/03/07 11:51:39;;;;;;;9.50;5.40;;;;;;;1.31;43.05;99186.19;5017310;28;20064;-59
2022/03/07 11:54:26;;;;;;;9.93;5.40;;;;;;;0.64;58.20;99186.81;5017953;28;20476;-59
2022/03/07 11:57:13;;;;;;;9.25;5.63;;;;;;;0.17;46.57;99195.44;5038769;28;20089;-58
2022/03/07 12:00:17;;;;;;;11.38;6.40;;;;;;;0.23;46.52;99182.44;5031785;28;20056;-58
2022/03/07 12:03:15;;;;;;;8.80;5.18;;;;;;;0.46;46.55;99176.84;5030309;28;20404;-58
2022/03/07 12:06:04;;;;;;;13.07;6.57;;;;;;;0.62;46.09;99179.09;5030640;28;20068;-58
2022/03/07 12:08:56;;;;;;;10.48;6.13;;;;;;;1.76;43.59;99175.66;5030300;28;20064;-59
2022/03/07 12:11:41;;;;;;;13.85;5.82;;;;;;;3.28;40.08;99174.81;5032045;28;20397;-58
2022/03/07 12:14:30;;;;;;;9.32;5.00;;;;;;;3.20;39.79;99165.53;5030298;28;20413;-58
2022/03/07 12:17:18;;;;;;;11.63;6.63;;;;;;;2.11;41.29;99165.25;5031543;28;20052;-58
2022/03/07 12:20:05;;;;;;;13.65;5.20;;;;;;;1.50;42.70;99164.22;5031504;28;20104;-59
2022/03/07 12:22:50;;;;;;;11.68;5.45;;;;;;;2.87;40.49;99159.66;5030583;28;20056;-58
2022/03/07 12:25:35;;;;;;;9.45;4.78;;;;;;;3.33;39.42;99158.19;5031473;28;20061;-58
2022/03/07 12:28:21;;;;;;;11.48;5.43;;;;;;;2.53;40.57;99152.00;5016623;28;20057;-57
2022/03/07 12:31:07;;;;;;;8.43;5.30;;;;;;;1.45;42.98;99157.44;5031275;28;20512;-58
2022/03/07 12:33:53;;;;;;;17.45;6.32;;;;;;;1.08;44.72;99151.44;5030044;28;20064;-57
2022/03/07 12:36:39;;;;;;;11.45;5.50;;;;;;;1.41;44.74;99168.75;5016355;28;20056;-58
2022/03/07 12:39:26;;;;;;;9.73;6.30;;;;;;;0.93;45.10;99154.38;5011469;28;20065;-58
2022/03/07 12:42:13;;;;;;;10.70;5.38;;;;;;;0.90;45.72;99152.69;5011369;28;20056;-59
2022/03/07 12:45:00;;;;;;;11.23;5.93;;;;;;;0.57;45.88;99145.66;5011362;28;20512;-58
2022/03/07 12:47:46;;;;;;;12.95;6.28;;;;;;;0.40;46.83;99156.34;5002565;28;20500;-58
2022/03/07 12:50:34;;;;;;;11.45;6.00;;;;;;;0.60;46.82;99148.16;5010194;28;20061;-57
2022/03/07 12:53:20;;;;;;;12.13;6.30;;;;;;;1.19;46.00;99148.59;5011457;28;20057;-59
2022/03/07 12:56:05;;;;;;;9.82;5.38;;;;;;;1.94;44.55;99149.31;5021319;28;20084;-57